createdAt,value
2022-09-26T00:01:31.399Z,88.43
2022-09-26T00:03:48.464Z,89.73
2022-09-26T00:06:05.512Z,89.95
2022-09-26T00:08:22.498Z,90.47
2022-09-26T00:10:39.823Z,89.54
2022-09-26T00:12:56.851Z,87.82
2022-09-26T00:15:16.601Z,89.72
2022-09-26T00:17:33.556Z,89.90
2022-09-26T00:19:51.660Z,88.73
2022-09-26T00:22:08.698Z,89.68
2022-09-26T00:24:25.786Z,88.33
2022-09-26T00:26:43.065Z,88.79
2022-09-26T00:29:00.045Z,88.26
2022-09-26T00:31:17.529Z,88.83
2022-09-26T00:33:34.753Z,89.27
2022-09-26T00:35:51.707Z,87.93
2022-09-26T00:38:08.912Z,88.60
2022-09-26T00:40:26.268Z,88.96
2022-09-26T00:42:43.324Z,89.80
2022-09-26T00:45:00.402Z,88.16
2022-09-26T00:47:19.955Z,88.65
2022-09-26T00:49:37.046Z,89.28
2022-09-26T00:51:54.077Z,87.95
2022-09-26T00:54:11.312Z,88.10
2022-09-26T00:56:28.377Z,88.54
2022-09-26T00:58:45.654Z,89.11
2022-09-26T01:01:02.781Z,88.76
2022-09-26T01:03:20.164Z,89.45
2022-09-26T01:05:39.912Z,88.70
2022-09-26T01:07:56.939Z,89.22
2022-09-26T01:10:15.172Z,88.87
2022-09-26T01:12:32.135Z,89.00
2022-09-26T01:14:51.189Z,88.48
2022-09-26T01:17:08.504Z,88.46
2022-09-26T01:19:26.524Z,88.82
2022-09-26T01:21:43.737Z,89.25
2022-09-26T01:24:00.964Z,89.38
2022-09-26T01:26:18.051Z,89.92
2022-09-26T01:28:35.022Z,88.26
2022-09-26T01:30:54.975Z,88.79
2022-09-26T01:33:11.961Z,89.11
2022-09-26T01:35:29.312Z,89.47
2022-09-26T01:37:46.353Z,89.85
2022-09-26T01:40:04.283Z,88.99
2022-09-26T01:42:21.600Z,88.94
2022-09-26T01:44:39.803Z,89.83
2022-09-26T01:46:57.098Z,89.14
2022-09-26T01:49:14.386Z,89.74
2022-09-26T01:51:31.386Z,89.07
2022-09-26T01:53:48.644Z,89.67
2022-09-26T01:56:05.640Z,88.62
2022-09-26T01:58:22.717Z,89.77
2022-09-26T02:00:39.773Z,87.90
2022-09-26T02:02:56.899Z,88.88
2022-09-26T02:05:13.826Z,88.34
2022-09-26T02:07:31.157Z,89.10
2022-09-26T02:09:48.351Z,88.77
2022-09-26T02:12:06.374Z,89.28
2022-09-26T02:14:23.517Z,89.05
2022-09-26T02:16:40.703Z,89.61
2022-09-26T02:18:59.221Z,88.53
2022-09-26T02:21:17.087Z,89.00
2022-09-26T02:23:35.330Z,89.43
2022-09-26T02:25:52.630Z,89.27
2022-09-26T02:28:10.657Z,88.51
2022-09-26T02:30:27.695Z,89.15
2022-09-26T02:32:46.006Z,88.29
2022-09-26T02:35:03.018Z,88.88
2022-09-26T02:37:20.340Z,88.96
2022-09-26T02:39:38.590Z,88.24
2022-09-26T02:41:55.804Z,88.44
2022-09-26T02:44:13.077Z,88.30
2022-09-26T02:46:30.047Z,88.23
2022-09-26T02:48:47.080Z,88.09
2022-09-26T02:51:04.288Z,89.06
2022-09-26T02:53:21.325Z,88.30
2022-09-26T02:55:38.233Z,89.23
2022-09-26T02:57:55.508Z,89.22
2022-09-26T03:00:12.742Z,89.14
2022-09-26T03:02:29.960Z,89.03
2022-09-26T03:04:49.655Z,89.76
2022-09-26T03:07:06.993Z,89.82
2022-09-26T03:09:24.066Z,89.93
2022-09-26T03:11:41.325Z,90.22
2022-09-26T03:13:58.671Z,90.04
2022-09-26T03:16:15.705Z,89.78
2022-09-26T03:18:33.782Z,89.39
2022-09-26T03:20:52.010Z,88.76
2022-09-26T03:23:10.351Z,88.47
2022-09-26T03:25:28.439Z,89.16
2022-09-26T03:27:45.335Z,89.32
2022-09-26T03:30:02.564Z,89.65
2022-09-26T03:32:19.816Z,89.71
2022-09-26T03:34:36.888Z,89.58
2022-09-26T03:36:54.035Z,88.82
2022-09-26T03:39:11.242Z,89.30
2022-09-26T03:41:28.551Z,89.25
2022-09-26T03:43:46.454Z,89.42
2022-09-26T03:46:04.627Z,89.88
2022-09-26T03:48:21.866Z,89.65
2022-09-26T03:50:39.153Z,89.60
2022-09-26T03:52:56.161Z,89.34
2022-09-26T03:55:13.470Z,89.35
2022-09-26T03:57:30.425Z,89.97
2022-09-26T03:59:47.357Z,89.72
2022-09-26T04:02:04.506Z,89.75
2022-09-26T04:04:22.838Z,89.01
2022-09-26T04:06:39.869Z,89.66
2022-09-26T04:08:56.929Z,89.64
2022-09-26T04:11:14.287Z,89.36
2022-09-26T04:13:50.715Z,89.68
2022-09-26T04:16:08.517Z,89.58
2022-09-26T04:18:25.533Z,89.37
2022-09-26T04:20:42.823Z,89.40
2022-09-26T04:23:02.587Z,89.54
2022-09-26T04:25:19.906Z,89.43
2022-09-26T04:27:38.043Z,89.22
2022-09-26T04:29:55.355Z,88.74
2022-09-26T04:32:12.328Z,88.65
2022-09-26T04:34:29.230Z,89.27
2022-09-26T04:36:46.735Z,89.18
2022-09-26T04:39:03.774Z,89.64
2022-09-26T04:41:21.664Z,88.92
2022-09-26T04:43:38.691Z,89.38
2022-09-26T04:45:56.005Z,89.77
2022-09-26T04:48:13.011Z,89.92
2022-09-26T04:50:31.282Z,89.73
2022-09-26T04:52:48.575Z,89.50
2022-09-26T04:55:05.652Z,89.48
2022-09-26T04:57:22.582Z,89.26
2022-09-26T04:59:39.657Z,88.68
2022-09-26T05:01:56.718Z,88.75
2022-09-26T05:04:13.776Z,88.74
2022-09-26T05:06:30.825Z,88.71
2022-09-26T05:08:47.760Z,89.08
2022-09-26T05:11:04.760Z,89.10
2022-09-26T05:13:21.865Z,88.80
2022-09-26T05:15:38.886Z,88.68
2022-09-26T05:17:56.181Z,88.72
2022-09-26T05:20:14.119Z,89.08
2022-09-26T05:22:31.057Z,89.21
2022-09-26T05:24:49.086Z,89.31
2022-09-26T05:27:06.198Z,89.07
2022-09-26T05:29:23.147Z,89.63
2022-09-26T05:31:40.189Z,89.42
2022-09-26T05:33:57.588Z,89.04
2022-09-26T05:36:15.002Z,88.79
2022-09-26T05:38:32.008Z,88.63
2022-09-26T05:40:49.048Z,89.29
2022-09-26T05:43:09.675Z,89.17
2022-09-26T05:45:26.890Z,89.00
2022-09-26T05:47:43.930Z,89.03
2022-09-26T05:50:00.884Z,88.88
2022-09-26T05:52:18.857Z,89.05
2022-09-26T05:54:36.361Z,89.16
2022-09-26T05:56:53.620Z,89.06
2022-09-26T05:59:10.852Z,88.87
2022-09-26T06:01:28.064Z,88.70
2022-09-26T06:03:45.452Z,88.89
2022-09-26T06:06:03.443Z,88.84
2022-09-26T06:08:20.473Z,88.88
2022-09-26T06:10:39.468Z,88.73
2022-09-26T06:12:59.026Z,88.78
2022-09-26T06:15:15.929Z,88.74
2022-09-26T06:17:32.933Z,88.76
2022-09-26T06:19:50.129Z,88.81
2022-09-26T06:22:07.166Z,88.53
2022-09-26T06:24:24.354Z,88.75
2022-09-26T06:26:41.688Z,88.11
2022-09-26T06:28:58.678Z,88.69
2022-09-26T06:31:16.018Z,88.20
2022-09-26T06:33:33.641Z,88.75
2022-09-26T06:35:50.653Z,88.66
2022-09-26T06:38:07.582Z,88.55
2022-09-26T06:40:24.869Z,87.95
2022-09-26T06:42:41.807Z,88.07
2022-09-26T06:44:58.724Z,88.18
2022-09-26T06:47:16.001Z,89.08
2022-09-26T06:49:32.996Z,88.81
2022-09-26T06:51:49.849Z,88.78
2022-09-26T06:54:07.118Z,88.63
2022-09-26T06:56:24.151Z,88.30
2022-09-26T06:58:41.142Z,89.31
2022-09-26T07:00:59.286Z,88.80
2022-09-26T07:03:16.370Z,89.30
2022-09-26T07:05:33.594Z,89.39
2022-09-26T07:07:50.982Z,89.39
2022-09-26T07:10:09.211Z,89.41
2022-09-26T07:12:26.182Z,89.13
2022-09-26T07:14:43.569Z,89.09
2022-09-26T07:17:00.522Z,90.08
2022-09-26T07:19:17.704Z,89.02
2022-09-26T07:21:34.960Z,90.27
2022-09-26T07:23:52.200Z,88.81
2022-09-26T07:26:09.204Z,89.44
2022-09-26T07:28:27.186Z,90.18
2022-09-26T07:30:44.138Z,89.06
2022-09-26T07:33:01.099Z,89.31
2022-09-26T07:35:18.248Z,89.71
2022-09-26T07:37:35.245Z,90.83
2022-09-26T07:39:54.725Z,90.12
2022-09-26T07:42:13.583Z,89.29
2022-09-26T07:45:17.143Z,88.25
2022-09-26T07:47:07.652Z,87.86
2022-09-26T07:49:24.630Z,87.14
2022-09-26T07:51:41.623Z,88.20
2022-09-26T07:53:58.988Z,85.96
2022-09-26T07:56:16.036Z,85.32
2022-09-26T07:58:33.303Z,84.42
2022-09-26T08:00:50.232Z,83.64
2022-09-26T08:03:07.562Z,83.43
2022-09-26T08:05:24.667Z,82.17
2022-09-26T08:07:42.324Z,81.95
2022-09-26T08:09:59.418Z,82.17
2022-09-26T08:12:16.461Z,81.08
2022-09-26T08:14:34.385Z,81.15
2022-09-26T08:16:53.345Z,80.23
2022-09-26T08:19:10.644Z,80.51
2022-09-26T08:21:28.587Z,80.48
2022-09-26T08:23:45.525Z,80.96
2022-09-26T08:26:02.837Z,79.78
2022-09-26T08:28:20.129Z,79.02
2022-09-26T08:30:37.625Z,78.79
2022-09-26T08:32:57.727Z,76.91
2022-09-26T08:35:15.965Z,78.82
2022-09-26T08:37:34.394Z,76.69
2022-09-26T08:39:51.643Z,75.12
2022-09-26T08:42:08.929Z,75.84
2022-09-26T08:44:26.970Z,76.08
2022-09-26T08:46:44.065Z,75.18
2022-09-26T08:49:01.087Z,75.16
2022-09-26T08:51:18.026Z,75.02
2022-09-26T08:53:34.899Z,72.70
2022-09-26T08:55:52.774Z,71.98
2022-09-26T08:58:10.146Z,72.69
2022-09-26T09:00:27.464Z,71.46
2022-09-26T09:02:45.952Z,70.02
2022-09-26T09:05:03.088Z,70.25
2022-09-26T09:07:21.095Z,69.66
2022-09-26T09:09:38.108Z,69.49
2022-09-26T09:11:55.976Z,68.98
2022-09-26T09:14:13.077Z,71.22
2022-09-26T09:16:30.196Z,73.26
2022-09-26T09:18:47.996Z,71.55
2022-09-26T09:21:04.972Z,71.87
2022-09-26T09:23:22.058Z,72.39
2022-09-26T09:25:39.117Z,71.66
2022-09-26T09:28:01.158Z,73.68
2022-09-26T09:30:21.208Z,71.77
2022-09-26T09:32:38.214Z,70.75
2022-09-26T09:34:56.742Z,70.36
2022-09-26T09:37:14.056Z,71.39
2022-09-26T09:39:31.426Z,70.63
2022-09-26T09:41:52.013Z,71.12
2022-09-26T09:44:09.077Z,68.64
2022-09-26T09:46:26.096Z,69.67
2022-09-26T09:48:43.609Z,69.63
2022-09-26T09:51:00.618Z,68.02
2022-09-26T09:53:17.639Z,69.13
2022-09-26T09:55:36.589Z,69.34
2022-09-26T09:57:53.796Z,68.70
2022-09-26T10:00:11.913Z,67.59
2022-09-26T10:02:28.882Z,69.14
2022-09-26T10:04:46.256Z,70.04
2022-09-26T10:07:03.303Z,68.65
2022-09-26T10:09:36.327Z,68.55
2022-09-26T10:11:58.277Z,68.46
2022-09-26T10:14:15.654Z,68.95
2022-09-26T10:16:33.155Z,67.29
2022-09-26T10:18:50.586Z,69.66
2022-09-26T10:21:07.519Z,68.29
2022-09-26T10:23:25.399Z,68.71
2022-09-26T10:25:43.247Z,66.74
2022-09-26T10:28:01.386Z,68.21
2022-09-26T10:30:19.329Z,68.45
2022-09-26T10:32:36.788Z,67.68
2022-09-26T10:34:54.151Z,68.22
2022-09-26T10:37:11.178Z,68.65
2022-09-26T10:39:29.833Z,69.21
2022-09-26T10:41:46.813Z,69.03
2022-09-26T10:44:04.109Z,69.02
2022-09-26T10:46:21.531Z,67.55
2022-09-26T10:48:39.593Z,68.15
2022-09-26T10:51:00.127Z,67.39
2022-09-26T10:53:17.177Z,67.29
2022-09-26T10:55:34.554Z,66.57
2022-09-26T10:57:51.542Z,67.66
2022-09-26T11:00:08.888Z,65.68
2022-09-26T11:02:25.864Z,64.83
2022-09-26T11:04:46.314Z,64.18
2022-09-26T11:07:03.385Z,64.52
2022-09-26T11:09:20.747Z,64.20
2022-09-26T11:11:39.127Z,64.64
2022-09-26T11:13:56.494Z,63.00
2022-09-26T11:16:14.014Z,62.75
2022-09-26T11:18:31.172Z,62.66
2022-09-26T11:20:48.125Z,63.06
2022-09-26T11:23:06.133Z,62.26
2022-09-26T11:25:26.811Z,60.99
2022-09-26T11:27:43.928Z,60.57
2022-09-26T11:35:09.777Z,58.44
2022-09-26T11:37:27.150Z,58.92
2022-09-26T11:39:44.105Z,59.70
2022-09-26T11:42:01.180Z,58.76
2022-09-26T11:44:18.231Z,59.64
2022-09-26T11:46:35.421Z,59.52
2022-09-26T11:48:55.005Z,60.75
2022-09-26T11:51:12.161Z,60.94
2022-09-26T11:53:29.270Z,60.54
2022-09-26T11:55:46.355Z,61.42
2022-09-26T11:58:03.950Z,62.64
2022-09-26T12:00:21.144Z,63.48
2022-09-26T12:02:38.435Z,62.89
2022-09-26T12:04:55.936Z,63.98
2022-09-26T12:07:13.387Z,64.38
2022-09-26T12:09:30.423Z,63.32
2022-09-26T12:11:48.682Z,62.42
2022-09-26T12:14:06.057Z,63.88
2022-09-26T12:16:23.389Z,64.43
2022-09-26T12:18:40.277Z,63.23
2022-09-26T12:20:57.382Z,63.56
2022-09-26T12:23:14.440Z,62.79
2022-09-26T12:25:31.600Z,63.04
2022-09-26T12:27:48.602Z,63.27
2022-09-26T12:30:05.636Z,64.59
2022-09-26T12:32:22.863Z,63.90
2022-09-26T12:34:39.916Z,63.48
2022-09-26T12:36:57.213Z,64.48
2022-09-26T12:39:14.551Z,64.81
2022-09-26T12:41:31.618Z,64.63
2022-09-26T12:43:48.617Z,64.65
2022-09-26T12:46:07.123Z,64.05
2022-09-26T12:48:25.508Z,63.64
2022-09-26T12:50:42.555Z,64.23
2022-09-26T12:52:59.768Z,65.28
2022-09-26T12:55:16.976Z,64.14
2022-09-26T12:57:33.961Z,63.45
2022-09-26T12:59:50.985Z,64.73
2022-09-26T13:02:08.366Z,64.29
2022-09-26T13:04:25.678Z,63.21
2022-09-26T13:06:57.242Z,64.97
2022-09-26T13:09:21.529Z,63.67
2022-09-26T13:11:38.770Z,63.45
2022-09-26T13:13:58.147Z,64.54
2022-09-26T13:16:18.508Z,64.40
2022-09-26T13:18:35.956Z,64.53
2022-09-26T13:20:53.995Z,64.42
2022-09-26T13:23:13.914Z,63.51
2022-09-26T13:25:31.011Z,64.38
2022-09-26T13:27:48.190Z,65.28
2022-09-26T13:30:05.500Z,64.24
2022-09-26T13:32:24.062Z,64.17
2022-09-26T13:34:42.387Z,64.36
2022-09-26T13:36:59.527Z,64.36
2022-09-26T13:39:20.261Z,65.14
2022-09-26T13:41:37.654Z,63.39
2022-09-26T13:43:55.675Z,64.48
2022-09-26T13:46:12.988Z,64.14
2022-09-26T13:48:31.301Z,64.92
2022-09-26T13:50:48.596Z,65.18
2022-09-26T13:53:05.668Z,64.61
2022-09-26T13:55:22.988Z,63.97
2022-09-26T13:57:42.744Z,62.94
2022-09-26T14:00:00.123Z,64.56
2022-09-26T14:02:17.811Z,63.26
2022-09-26T14:04:35.082Z,62.58
2022-09-26T14:06:52.037Z,62.97
2022-09-26T14:09:10.058Z,62.72
2022-09-26T14:11:27.322Z,62.04
2022-09-26T14:13:44.586Z,61.33
2022-09-26T14:16:01.974Z,61.79
2022-09-26T14:18:19.383Z,60.88
2022-09-26T14:20:36.798Z,60.93
2022-09-26T14:22:53.796Z,61.01
2022-09-26T14:25:10.805Z,60.99
2022-09-26T14:27:28.091Z,60.77
2022-09-26T14:29:46.413Z,60.78
2022-09-26T14:32:03.791Z,61.14
2022-09-26T14:34:21.034Z,60.66
2022-09-26T14:36:38.102Z,60.50
2022-09-26T14:38:54.967Z,60.74
2022-09-26T14:41:12.300Z,61.42
2022-09-26T14:43:29.426Z,60.95
2022-09-26T14:45:46.982Z,60.32
2022-09-26T14:48:05.011Z,60.09
2022-09-26T14:50:21.989Z,59.65
2022-09-26T14:52:38.964Z,60.25
2022-09-26T14:54:56.274Z,60.06
2022-09-26T14:57:15.414Z,59.75
2022-09-26T14:59:36.136Z,59.45
2022-09-26T15:01:53.460Z,59.56
2022-09-26T15:04:11.404Z,61.25
2022-09-26T15:06:29.576Z,60.32
2022-09-26T15:08:46.839Z,60.45
2022-09-26T15:11:04.219Z,61.03
2022-09-26T15:13:21.218Z,60.47
2022-09-26T15:15:38.555Z,59.84
2022-09-26T15:17:58.205Z,59.96
2022-09-26T15:20:16.297Z,61.08
2022-09-26T15:22:33.551Z,62.11
2022-09-26T15:24:51.972Z,63.25
2022-09-26T15:27:09.369Z,62.29
2022-09-26T15:29:27.575Z,64.19
2022-09-26T15:31:44.767Z,63.96
2022-09-26T15:34:03.653Z,63.72
2022-09-26T15:36:20.632Z,66.79
2022-09-26T15:38:37.694Z,65.75
2022-09-26T15:40:55.069Z,66.73
2022-09-26T15:43:13.078Z,68.19
2022-09-26T15:45:30.498Z,67.53
2022-09-26T15:47:47.633Z,68.31
2022-09-26T15:50:04.594Z,68.06
2022-09-26T15:52:22.859Z,68.63
2022-09-26T15:54:39.927Z,67.81
2022-09-26T15:56:57.218Z,67.99
2022-09-26T15:59:14.387Z,69.66
2022-09-26T16:01:31.798Z,71.02
2022-09-26T16:03:48.830Z,69.72
2022-09-26T16:06:05.830Z,70.26
2022-09-26T16:08:22.741Z,70.19
2022-09-26T16:10:41.017Z,71.14
2022-09-26T16:12:58.145Z,70.46
2022-09-26T16:15:16.596Z,71.25
2022-09-26T16:17:33.489Z,71.71
2022-09-26T16:19:51.523Z,72.32
2022-09-26T16:22:08.427Z,73.13
2022-09-26T16:24:25.404Z,74.02
2022-09-26T16:26:42.657Z,76.04
2022-09-26T16:29:12.343Z,75.57
2022-09-26T16:31:29.690Z,74.73
2022-09-26T16:33:46.762Z,75.36
2022-09-26T16:36:03.745Z,73.87
2022-09-26T16:38:20.785Z,75.04
2022-09-26T16:40:38.872Z,76.19
2022-09-26T16:42:55.925Z,76.27
2022-09-26T16:45:13.079Z,75.73
2022-09-26T16:47:30.449Z,76.66
2022-09-26T16:49:47.467Z,78.10
2022-09-26T16:52:05.499Z,77.21
2022-09-26T16:54:22.737Z,77.40
2022-09-26T16:56:40.701Z,77.08
2022-09-26T16:58:57.716Z,78.29
2022-09-26T17:01:14.972Z,78.78
2022-09-26T17:03:32.465Z,78.49
2022-09-26T17:05:50.504Z,78.67
2022-09-26T17:08:07.613Z,79.08
2022-09-26T17:10:24.588Z,78.99
2022-09-26T17:12:42.660Z,79.18
2022-09-26T17:14:59.862Z,79.13
2022-09-26T17:17:16.896Z,78.48
2022-09-26T17:19:33.832Z,80.32
2022-09-26T17:21:50.703Z,79.75
2022-09-26T17:24:08.696Z,80.00
2022-09-26T17:26:26.677Z,79.91
2022-09-26T17:28:43.679Z,79.37
2022-09-26T17:31:00.770Z,79.12
2022-09-26T17:33:18.039Z,79.48
2022-09-26T17:35:35.077Z,80.43
2022-09-26T17:37:53.037Z,80.07
2022-09-26T17:40:10.291Z,80.01
2022-09-26T17:42:27.304Z,79.19
2022-09-26T17:44:44.283Z,79.77
2022-09-26T17:47:01.527Z,79.02
2022-09-26T17:49:18.486Z,79.53
2022-09-26T17:51:35.425Z,79.80
2022-09-26T17:53:52.956Z,80.40
2022-09-26T17:56:10.001Z,80.35
2022-09-26T17:58:27.214Z,80.41
2022-09-26T18:00:44.465Z,80.17
2022-09-26T18:03:02.740Z,80.15
2022-09-26T18:05:19.656Z,80.44
2022-09-26T18:07:36.697Z,80.76
2022-09-26T18:09:53.765Z,80.86
2022-09-26T18:12:12.915Z,81.14
2022-09-26T18:14:30.178Z,81.58
2022-09-26T18:16:47.915Z,81.65
2022-09-26T18:19:07.602Z,81.64
2022-09-26T18:21:25.069Z,81.15
2022-09-26T18:23:43.053Z,81.59
2022-09-26T18:26:00.066Z,81.05
2022-09-26T18:28:16.972Z,82.03
2022-09-26T18:30:33.928Z,81.66
2022-09-26T18:32:51.193Z,82.58
2022-09-26T18:35:09.406Z,81.77
2022-09-26T18:37:27.656Z,81.44
2022-09-26T18:39:44.676Z,81.34
2022-09-26T18:42:01.912Z,81.97
2022-09-26T18:44:18.851Z,81.90
2022-09-26T18:46:36.951Z,82.31
2022-09-26T18:48:54.014Z,81.63
2022-09-26T18:51:11.166Z,82.45
2022-09-26T18:53:28.160Z,82.35
2022-09-26T18:55:46.446Z,82.98
2022-09-26T18:58:03.315Z,82.58
2022-09-26T19:00:20.508Z,82.72
2022-09-26T19:02:37.821Z,82.62
2022-09-26T19:04:54.771Z,82.92
2022-09-26T19:07:11.947Z,83.33
2022-09-26T19:09:29.264Z,83.36
2022-09-26T19:11:46.726Z,83.19
2022-09-26T19:14:03.704Z,83.48
2022-09-26T19:16:22.060Z,83.52
2022-09-26T19:18:39.338Z,83.26
2022-09-26T19:20:56.359Z,83.52
2022-09-26T19:23:13.344Z,83.62
2022-09-26T19:25:30.289Z,83.20
2022-09-26T19:27:47.283Z,83.35
2022-09-26T19:30:04.304Z,83.60
2022-09-26T19:32:22.141Z,83.88
2022-09-26T19:34:40.118Z,84.50
2022-09-26T19:36:57.056Z,84.86
2022-09-26T19:39:14.295Z,85.02
2022-09-26T19:41:31.630Z,84.40
2022-09-26T19:43:48.918Z,85.25
2022-09-26T19:46:06.030Z,84.64
2022-09-26T19:48:23.375Z,84.72
2022-09-26T19:50:40.285Z,85.30
2022-09-26T19:52:57.341Z,84.55
2022-09-26T19:55:14.439Z,84.95
2022-09-26T19:57:31.672Z,85.20
2022-09-26T19:59:49.635Z,85.24
2022-09-26T20:02:06.774Z,84.79
2022-09-26T20:04:25.091Z,84.86
2022-09-26T20:06:42.110Z,84.67
2022-09-26T20:09:01.929Z,84.65
2022-09-26T20:11:20.066Z,85.15
2022-09-26T20:13:37.368Z,86.00
2022-09-26T20:15:54.918Z,85.54
2022-09-26T20:18:11.911Z,85.22
2022-09-26T20:20:30.151Z,85.63
2022-09-26T20:22:47.369Z,85.00
2022-09-26T20:25:04.396Z,85.56
2022-09-26T20:27:22.374Z,85.97
2022-09-26T20:29:39.398Z,85.55
2022-09-26T20:31:56.657Z,85.89
2022-09-26T20:34:13.930Z,85.96
2022-09-26T20:36:30.848Z,86.28
2022-09-26T20:38:48.014Z,85.59
2022-09-26T20:41:08.148Z,86.54
2022-09-26T20:43:30.169Z,85.08
2022-09-26T20:45:47.152Z,85.24
2022-09-26T20:48:05.165Z,85.67
2022-09-26T20:50:22.176Z,85.70
2022-09-26T20:52:39.413Z,85.68
2022-09-26T20:54:57.470Z,85.86
2022-09-26T20:57:14.483Z,85.51
2022-09-26T20:59:31.742Z,85.52
2022-09-26T21:01:48.841Z,86.07
2022-09-26T21:04:06.935Z,86.58
2022-09-26T21:06:23.933Z,86.42
2022-09-26T21:08:41.149Z,85.86
2022-09-26T21:10:58.575Z,86.22
2022-09-26T21:13:17.891Z,86.21
2022-09-26T21:15:34.890Z,86.57
2022-09-26T21:17:51.925Z,86.53
2022-09-26T21:20:08.861Z,86.42
2022-09-26T21:22:26.093Z,86.79
2022-09-26T21:24:43.160Z,86.71
2022-09-26T21:27:00.328Z,86.78
2022-09-26T21:29:17.675Z,86.68
2022-09-26T21:31:34.736Z,86.82
2022-09-26T21:33:52.611Z,87.41
2022-09-26T21:36:09.855Z,87.10
2022-09-26T21:38:27.122Z,86.86
2022-09-26T21:40:44.263Z,86.48
2022-09-26T21:43:01.985Z,86.78
2022-09-26T21:45:22.372Z,86.90
2022-09-26T21:47:42.087Z,87.26
2022-09-26T21:49:59.984Z,87.37
2022-09-26T21:52:16.960Z,88.11
2022-09-26T21:54:34.195Z,88.33
2022-09-26T21:56:51.377Z,88.42
2022-09-26T21:59:08.714Z,88.63
2022-09-26T22:01:25.676Z,88.72
2022-09-26T22:03:42.741Z,88.69
2022-09-26T22:06:04.882Z,88.18
2022-09-26T22:08:23.813Z,88.34
2022-09-26T22:10:40.703Z,87.92
2022-09-26T22:12:57.624Z,88.79
2022-09-26T22:15:14.921Z,88.92
2022-09-26T22:17:31.879Z,89.53
2022-09-26T22:19:48.843Z,89.31
2022-09-26T22:22:05.821Z,89.42
2022-09-26T22:24:22.794Z,89.35
2022-09-26T22:26:39.817Z,89.63
2022-09-26T22:28:56.860Z,88.84
2022-09-26T22:31:14.103Z,88.75
2022-09-26T22:33:32.430Z,89.06
2022-09-26T22:35:49.640Z,89.27
2022-09-26T22:38:06.670Z,89.74
2022-09-26T22:40:23.674Z,89.34
2022-09-26T22:42:40.692Z,89.62
2022-09-26T22:44:57.982Z,89.32
2022-09-26T22:47:15.307Z,89.74
2022-09-26T22:49:33.501Z,90.19
2022-09-26T22:51:50.786Z,89.65
2022-09-26T22:54:07.752Z,90.17
2022-09-26T22:56:25.059Z,90.20
2022-09-26T22:58:43.285Z,90.20
2022-09-26T23:01:00.348Z,90.28
2022-09-26T23:03:18.626Z,90.74
2022-09-26T23:05:35.912Z,90.43
2022-09-26T23:07:52.930Z,90.33
2022-09-26T23:10:11.118Z,90.53
2022-09-26T23:12:28.481Z,90.39
2022-09-26T23:14:45.761Z,90.16
2022-09-26T23:17:17.541Z,90.40
2022-09-26T23:19:34.818Z,90.13
2022-09-26T23:21:52.053Z,90.03
2022-09-26T23:24:09.045Z,89.68
2022-09-26T23:26:26.290Z,89.70
2022-09-26T23:28:43.217Z,89.91
2022-09-26T23:31:01.513Z,90.77
2022-09-26T23:33:18.973Z,90.37
2022-09-26T23:35:36.174Z,90.98
2022-09-26T23:37:54.377Z,90.36
2022-09-26T23:40:11.474Z,90.34
2022-09-26T23:42:29.544Z,90.73
2022-09-26T23:44:47.487Z,90.56
2022-09-26T23:47:06.773Z,91.27
2022-09-26T23:49:23.777Z,90.71
2022-09-26T23:51:40.774Z,91.03
2022-09-26T23:53:57.707Z,91.75
2022-09-26T23:56:15.030Z,91.06
2022-09-26T23:58:32.013Z,91.05
